createdAt,value
2023-04-27T00:02:04.752Z,9.10
2023-04-27T00:07:20.868Z,9.10
2023-04-27T00:12:36.808Z,8.90
2023-04-27T00:17:52.816Z,9.00
2023-04-27T00:23:08.632Z,9.00
2023-04-27T00:28:24.168Z,9.00
2023-04-27T00:33:40.150Z,9.10
2023-04-27T00:38:56.602Z,9.10
2023-04-27T00:44:12.532Z,9.10
2023-04-27T00:49:29.597Z,9.10
2023-04-27T00:54:47.807Z,9.10
2023-04-27T01:00:07.027Z,9.10
2023-04-27T01:05:26.302Z,9.20
2023-04-27T01:10:42.308Z,9.20
2023-04-27T01:15:58.726Z,9.20
2023-04-27T01:21:14.821Z,9.10
2023-04-27T01:26:30.838Z,9.20
2023-04-27T01:31:47.038Z,9.20
2023-04-27T01:37:02.762Z,9.10
2023-04-27T01:42:18.852Z,9.00
2023-04-27T01:47:34.779Z,8.90
2023-04-27T01:52:50.616Z,9.10
2023-04-27T01:58:06.621Z,9.20
2023-04-27T02:03:22.711Z,9.20
2023-04-27T02:08:38.448Z,8.80
2023-04-27T02:13:54.492Z,8.70
2023-04-27T02:19:10.384Z,8.30
2023-04-27T02:24:26.241Z,8.10
2023-04-27T02:29:41.619Z,7.80
2023-04-27T02:34:57.782Z,7.60
2023-04-27T02:40:13.800Z,7.40
2023-04-27T02:45:29.878Z,7.30
2023-04-27T02:50:46.302Z,7.30
2023-04-27T02:56:02.469Z,7.20
2023-04-27T03:01:18.402Z,7.20
2023-04-27T03:06:33.882Z,7.10
2023-04-27T03:11:49.313Z,7.10
2023-04-27T03:17:05.156Z,7.20
2023-04-27T03:22:20.660Z,7.00
2023-04-27T03:27:36.571Z,7.00
2023-04-27T03:32:52.430Z,7.10
2023-04-27T03:38:08.250Z,6.90
2023-04-27T03:43:25.362Z,6.80
2023-04-27T03:48:41.491Z,6.80
2023-04-27T03:53:57.322Z,6.90
2023-04-27T03:59:12.990Z,7.10
2023-04-27T04:04:29.400Z,7.20
2023-04-27T04:09:45.117Z,7.30
2023-04-27T04:15:00.711Z,7.20
2023-04-27T04:20:17.254Z,7.30
2023-04-27T04:25:33.490Z,7.40
2023-04-27T04:30:49.903Z,7.70
2023-04-27T04:36:06.019Z,7.80
2023-04-27T04:41:22.039Z,7.90
2023-04-27T04:46:39.037Z,7.90
2023-04-27T04:51:55.131Z,7.80
2023-04-27T04:57:11.107Z,8.10
2023-04-27T05:02:27.131Z,8.20
2023-04-27T05:07:43.293Z,8.30
2023-04-27T05:12:59.363Z,8.20
2023-04-27T05:18:15.333Z,8.20
2023-04-27T05:23:31.479Z,8.30
2023-04-27T05:28:47.628Z,8.40
2023-04-27T05:34:03.696Z,8.50
2023-04-27T05:39:19.657Z,8.90
2023-04-27T05:44:35.840Z,9.40
2023-04-27T05:49:54.437Z,9.50
2023-04-27T05:55:11.007Z,10.60
2023-04-27T06:00:27.442Z,11.10
2023-04-27T06:05:43.514Z,11.20
2023-04-27T06:10:59.434Z,10.90
2023-04-27T06:16:14.927Z,10.30
2023-04-27T06:21:33.998Z,10.20
2023-04-27T06:26:50.298Z,10.10
2023-04-27T06:32:07.405Z,10.30
2023-04-27T06:37:23.236Z,10.20
2023-04-27T06:42:39.216Z,10.30
2023-04-27T06:47:55.572Z,10.90
2023-04-27T06:53:11.510Z,12.20
2023-04-27T06:58:27.564Z,12.00
2023-04-27T07:03:43.740Z,11.90
2023-04-27T07:09:00.190Z,12.20
2023-04-27T07:14:16.099Z,13.00
2023-04-27T07:19:32.684Z,12.80
2023-04-27T07:24:48.666Z,12.30
2023-04-27T07:30:08.606Z,11.70
2023-04-27T07:35:24.473Z,11.30
2023-04-27T07:40:40.139Z,12.00
2023-04-27T07:45:58.786Z,13.70
2023-04-27T07:51:16.332Z,14.70
2023-04-27T07:56:33.132Z,13.30
2023-04-27T08:01:48.938Z,14.60
2023-04-27T08:07:05.219Z,14.10
2023-04-27T08:12:22.033Z,13.10
2023-04-27T08:17:42.146Z,12.40
2023-04-27T08:22:57.848Z,12.30
2023-04-27T08:28:15.156Z,12.10
2023-04-27T08:33:31.238Z,12.50
2023-04-27T08:38:47.194Z,13.40
2023-04-27T08:44:06.933Z,13.50
2023-04-27T08:49:22.758Z,13.50
2023-04-27T08:54:39.217Z,13.60
2023-04-27T09:00:02.326Z,13.00
2023-04-27T09:05:23.501Z,12.10
2023-04-27T09:10:50.745Z,12.00
2023-04-27T09:16:06.710Z,12.30
2023-04-27T09:21:30.099Z,12.70
2023-04-27T09:26:50.464Z,14.40
2023-04-27T09:32:17.317Z,17.40
2023-04-27T09:37:33.369Z,15.90
2023-04-27T09:42:49.254Z,16.20
2023-04-27T09:48:09.285Z,16.60
2023-04-27T09:53:44.234Z,16.10
2023-04-27T09:59:21.933Z,15.40
2023-04-27T10:05:28.902Z,16.20
2023-04-27T10:10:48.618Z,15.30
2023-04-27T10:16:18.892Z,15.10
2023-04-27T10:21:34.799Z,15.70
2023-04-27T10:26:51.531Z,14.90
2023-04-27T10:32:18.994Z,14.60
2023-04-27T10:37:42.296Z,15.10
2023-04-27T10:43:15.349Z,14.80
2023-04-27T10:48:30.911Z,14.60
2023-04-27T10:53:48.127Z,14.20
2023-04-27T10:59:05.398Z,14.10
2023-04-27T11:04:21.423Z,14.30
2023-04-27T11:09:42.626Z,14.40
2023-04-27T11:14:59.146Z,14.30
2023-04-27T11:20:24.059Z,14.60
2023-04-27T11:25:39.839Z,14.60
2023-04-27T11:30:59.354Z,14.50
2023-04-27T11:36:19.525Z,14.80
2023-04-27T11:41:37.270Z,15.20
2023-04-27T11:46:53.451Z,15.40
2023-04-27T11:52:09.468Z,15.80
2023-04-27T11:57:33.928Z,16.30
2023-04-27T12:02:50.115Z,17.00
2023-04-27T12:08:07.001Z,16.50
2023-04-27T12:13:22.823Z,15.90
2023-04-27T12:18:38.246Z,15.30
2023-04-27T12:23:54.069Z,15.10
2023-04-27T12:29:10.105Z,15.00
2023-04-27T12:34:26.444Z,15.30
2023-04-27T12:39:42.074Z,15.80
2023-04-27T12:44:58.603Z,16.00
2023-04-27T12:50:15.958Z,16.60
2023-04-27T12:55:34.495Z,16.80
2023-04-27T13:00:50.542Z,16.70
2023-04-27T13:06:06.584Z,17.20
2023-04-27T13:11:23.725Z,16.80
2023-04-27T13:16:43.154Z,15.90
2023-04-27T13:21:59.162Z,15.70
2023-04-27T13:27:15.233Z,16.00
2023-04-27T13:32:31.527Z,16.00
2023-04-27T13:37:48.313Z,15.60
2023-04-27T13:43:03.818Z,15.60
2023-04-27T13:48:19.974Z,15.80
2023-04-27T13:53:36.222Z,16.20
2023-04-27T13:58:52.154Z,15.80
2023-04-27T14:04:08.511Z,15.40
2023-04-27T14:09:27.136Z,15.90
2023-04-27T14:14:43.136Z,16.20
2023-04-27T14:19:58.992Z,16.40
2023-04-27T14:25:14.435Z,16.50
2023-04-27T14:30:33.990Z,16.40
2023-04-27T14:35:49.824Z,15.80
2023-04-27T14:41:06.046Z,15.60
2023-04-27T14:46:22.077Z,16.30
2023-04-27T14:51:38.217Z,16.50
2023-04-27T14:56:54.057Z,16.40
2023-04-27T15:02:09.480Z,16.00
2023-04-27T15:07:25.003Z,16.20
2023-04-27T15:12:40.946Z,16.20
2023-04-27T15:17:57.160Z,15.90
2023-04-27T15:23:12.809Z,15.80
2023-04-27T15:28:29.051Z,15.80
2023-04-27T15:33:44.905Z,15.40
2023-04-27T15:39:00.931Z,15.40
2023-04-27T15:44:16.909Z,15.50
2023-04-27T15:49:39.901Z,15.20
2023-04-27T15:55:02.014Z,15.10
2023-04-27T16:00:19.193Z,15.20
2023-04-27T16:05:34.857Z,15.20
2023-04-27T16:10:50.788Z,15.20
2023-04-27T16:16:09.107Z,15.40
2023-04-27T16:21:25.347Z,15.20
2023-04-27T16:26:40.937Z,15.10
2023-04-27T16:31:57.027Z,15.00
2023-04-27T16:37:12.997Z,15.00
2023-04-27T16:42:28.953Z,14.90
2023-04-27T16:47:48.345Z,14.90
2023-04-27T16:53:07.858Z,14.80
2023-04-27T16:58:24.338Z,14.60
2023-04-27T17:03:40.404Z,14.50
2023-04-27T17:08:57.740Z,14.40
2023-04-27T17:14:14.345Z,14.30
2023-04-27T17:19:30.368Z,14.30
2023-04-27T17:24:46.468Z,14.00
2023-04-27T17:30:02.576Z,13.70
2023-04-27T17:35:20.921Z,13.60
2023-04-27T17:40:36.828Z,13.40
2023-04-27T17:45:52.592Z,13.30
2023-04-27T17:51:08.938Z,13.10
2023-04-27T17:56:24.578Z,12.90
2023-04-27T18:01:40.592Z,12.70
2023-04-27T18:06:57.234Z,12.60
2023-04-27T18:12:13.344Z,12.60
2023-04-27T18:17:29.296Z,12.50
2023-04-27T18:22:45.240Z,12.50
2023-04-27T18:28:01.147Z,12.40
2023-04-27T18:33:18.362Z,12.20
2023-04-27T18:38:33.877Z,12.00
2023-04-27T18:43:49.915Z,11.80
2023-04-27T18:49:06.040Z,11.40
2023-04-27T18:54:21.943Z,11.20
2023-04-27T18:59:39.807Z,11.10
2023-04-27T19:05:11.203Z,10.90
2023-04-27T19:10:29.510Z,10.80
2023-04-27T19:15:45.418Z,10.70
2023-04-27T19:21:01.883Z,10.70
2023-04-27T19:26:17.803Z,10.60
2023-04-27T19:31:33.976Z,10.40
2023-04-27T19:36:50.454Z,10.30
2023-04-27T19:42:06.368Z,10.20
2023-04-27T19:47:24.274Z,10.20
2023-04-27T19:52:40.212Z,9.90
2023-04-27T19:57:55.643Z,9.80
2023-04-27T20:03:13.032Z,9.70
2023-04-27T20:08:29.402Z,9.70
2023-04-27T20:13:44.819Z,9.70
2023-04-27T20:19:00.861Z,9.50
2023-04-27T20:24:17.614Z,9.30
2023-04-27T20:29:34.040Z,9.20
2023-04-27T20:34:49.812Z,9.20
2023-04-27T20:40:07.973Z,9.20
2023-04-27T20:45:24.193Z,9.10
2023-04-27T20:50:40.248Z,8.90
2023-04-27T20:55:57.355Z,8.90
2023-04-27T21:01:13.192Z,8.80
2023-04-27T21:06:28.979Z,8.80
2023-04-27T21:11:44.709Z,8.80
2023-04-27T21:17:01.134Z,8.60
2023-04-27T21:22:17.213Z,8.60
2023-04-27T21:27:33.160Z,8.60
2023-04-27T21:32:49.028Z,8.60
2023-04-27T21:38:04.936Z,8.50
2023-04-27T21:43:20.848Z,8.30
2023-04-27T21:48:36.839Z,8.20
2023-04-27T21:53:52.817Z,8.20
2023-04-27T21:59:08.873Z,8.30
2023-04-27T22:04:25.523Z,8.20
2023-04-27T22:09:41.712Z,8.10
2023-04-27T22:14:57.725Z,7.80
2023-04-27T22:20:14.684Z,7.80
2023-04-27T22:25:30.351Z,7.80
2023-04-27T22:30:46.993Z,7.80
2023-04-27T22:36:03.025Z,7.70
2023-04-27T22:41:19.563Z,7.80
2023-04-27T22:46:36.484Z,7.70
2023-04-27T22:51:54.151Z,7.50
2023-04-27T22:57:09.552Z,7.40
2023-04-27T23:02:25.553Z,7.30
2023-04-27T23:07:43.023Z,7.20
2023-04-27T23:13:01.663Z,7.20
2023-04-27T23:18:17.177Z,7.20
2023-04-27T23:23:33.162Z,7.10
2023-04-27T23:28:49.920Z,7.20
2023-04-27T23:34:05.563Z,7.40
2023-04-27T23:39:21.583Z,7.50
2023-04-27T23:44:37.447Z,7.30
2023-04-27T23:49:53.483Z,7.40
2023-04-27T23:55:10.442Z,7.50
